Terminal Aerodrome Forecast
Issued by NWS

Current Version | Previous Version | Graphics & Text | Print | Product List | Glossary On
Versions: 1 2 3 4 5 6 7 8 9 10 11 12 13 14 15 16 17 18 19 20 21 22 23 24 25 26 27
000
FTUS41 KRLX 191622 AAB
TAFCKB
TAF AMD
KCKB 191622Z 1916/2012 26010G18KT P6SM OVC040
     FM192100 28012G20KT 4SM -SHRASN OVC020
     FM192300 28012G18KT P6SM OVC020
     FM200600 25009KT P6SM BKN040=

USA.gov is the U.S. government's official web portal to all federal, state and local government web resources and services.